Back to Top

Language: 

My Weather Underground Personal Weather Station Historical Data with Graphs...

Delerius Weather Station Historical Data
Daily Summary for November 5, 2017 Units:  English    Metric   Both
« Previous Day
Next Day »
Daily Weekly Monthly Yearly Custom
  High: Low: Average:
Temperature: 50.2 °F 32.7 °F 42.4 °F
Dew Point: 41.3 °F 30.4 °F 37 °F
Humidity: 91 % 67 % 82 %
Wind Speed: 13.0 mph 0.0 mph 5.4 mph
Wind Gust: 21.0 mph - -
Wind:- - WNW
Pressure: 30.21 in 29.69 in -
Precipitation: 0.00 in    
Historical Graphs
 
 
Tabular Data for November 5, 2017
Time Temperature Dew Point Pressure Wind Wind Speed Wind Gust Humidity Rainfall Rate (Hourly) solar Conditions
00:03 41.2 °F 37.0 °F 29.69 in WNW 4.0 mph 8.0 mph 85 % 0.00 in 0 W/m2
00:08 41.2 °F 37.3 °F 29.69 in WNW 5.0 mph 8.0 mph 86 % 0.00 in 0 W/m2
00:13 41.2 °F 37.3 °F 29.69 in West 5.0 mph 9.0 mph 86 % 0.00 in 0 W/m2
00:18 41.2 °F 37.0 °F 29.69 in West 5.0 mph 9.0 mph 85 % 0.00 in 0 W/m2
00:23 41.2 °F 37.0 °F 29.70 in WSW 4.0 mph 6.0 mph 85 % 0.00 in 0 W/m2
00:28 41.4 °F 37.2 °F 29.70 in WSW 4.0 mph 7.0 mph 85 % 0.00 in 0 W/m2
00:33 41.2 °F 37.0 °F 29.71 in WSW 2.0 mph 5.0 mph 85 % 0.00 in 0 W/m2
00:38 41.2 °F 37.0 °F 29.71 in West 7.0 mph 12.0 mph 85 % 0.00 in 0 W/m2
00:43 41.2 °F 37.0 °F 29.71 in West 5.0 mph 7.0 mph 85 % 0.00 in 0 W/m2
00:48 41.0 °F 36.8 °F 29.71 in West 4.0 mph 8.0 mph 85 % 0.00 in 0 W/m2
00:53 41.0 °F 36.8 °F 29.71 in West 4.0 mph 8.0 mph 85 % 0.00 in 0 W/m2
00:59 41.0 °F 36.8 °F 29.71 in West 5.0 mph 6.0 mph 85 % 0.00 in 0 W/m2
01:04 41.0 °F 36.8 °F 29.71 in West 5.0 mph 9.0 mph 85 % 0.00 in 0 W/m2
01:09 41.0 °F 37.1 °F 29.71 in West 5.0 mph 9.0 mph 86 % 0.00 in 0 W/m2
01:14 41.0 °F 37.1 °F 29.71 in WSW 8.0 mph 11.0 mph 86 % 0.00 in 0 W/m2
01:19 41.2 °F 37.3 °F 29.71 in West 7.0 mph 9.0 mph 86 % 0.00 in 0 W/m2
01:24 41.0 °F 37.1 °F 29.71 in West 6.0 mph 11.0 mph 86 % 0.00 in 0 W/m2
01:29 41.0 °F 37.1 °F 29.71 in West 6.0 mph 9.0 mph 86 % 0.00 in 0 W/m2
01:34 40.8 °F 37.3 °F 29.71 in West 4.0 mph 8.0 mph 87 % 0.00 in 0 W/m2
01:39 40.8 °F 37.3 °F 29.71 in West 3.0 mph 7.0 mph 87 % 0.00 in 0 W/m2
01:44 40.8 °F 37.3 °F 29.71 in West 3.0 mph 6.0 mph 87 % 0.00 in 0 W/m2
01:49 40.8 °F 37.3 °F 29.71 in West 5.0 mph 10.0 mph 87 % 0.00 in 0 W/m2
01:54 40.8 °F 37.3 °F 29.71 in West 5.0 mph 9.0 mph 87 % 0.00 in 0 W/m2
01:59 40.8 °F 37.3 °F 29.72 in West 9.0 mph 14.0 mph 87 % 0.00 in 0 W/m2
02:04 40.8 °F 37.3 °F 29.72 in West 8.0 mph 13.0 mph 87 % 0.00 in 0 W/m2
02:09 40.8 °F 37.3 °F 29.72 in West 8.0 mph 11.0 mph 87 % 0.00 in 0 W/m2
02:14 40.8 °F 37.3 °F 29.71 in West 7.0 mph 12.0 mph 87 % 0.00 in 0 W/m2
02:19 40.8 °F 37.3 °F 29.71 in West 7.0 mph 10.0 mph 87 % 0.00 in 0 W/m2
02:24 40.6 °F 36.8 °F 29.71 in West 9.0 mph 13.0 mph 86 % 0.00 in 0 W/m2
02:29 40.6 °F 36.8 °F 29.71 in West 8.0 mph 12.0 mph 86 % 0.00 in 0 W/m2
02:34 40.5 °F 36.6 °F 29.71 in West 7.0 mph 10.0 mph 86 % 0.00 in 0 W/m2
02:39 40.5 °F 36.6 °F 29.72 in West 6.0 mph 8.0 mph 86 % 0.00 in 0 W/m2
02:44 40.3 °F 36.4 °F 29.72 in West 5.0 mph 8.0 mph 86 % 0.00 in 0 W/m2
02:49 40.3 °F 36.7 °F 29.72 in West 6.0 mph 10.0 mph 87 % 0.00 in 0 W/m2
02:54 40.1 °F 36.5 °F 29.72 in West 6.0 mph 10.0 mph 87 % 0.00 in 0 W/m2
02:59 39.9 °F 36.4 °F 29.72 in West 8.0 mph 10.0 mph 87 % 0.00 in 0 W/m2
03:04 39.9 °F 36.4 °F 29.72 in West 5.0 mph 9.0 mph 87 % 0.00 in 0 W/m2
03:09 39.7 °F 36.2 °F 29.72 in West 5.0 mph 7.0 mph 87 % 0.00 in 0 W/m2
03:17 39.6 °F 36.0 °F 29.72 in West 4.0 mph 7.0 mph 87 % 0.00 in 0 W/m2
03:20 39.6 °F 36.0 °F 29.72 in West 4.0 mph 6.0 mph 87 % 0.00 in 0 W/m2
03:21 39.4 °F 35.8 °F 29.72 in West 4.0 mph 6.0 mph 87 % 0.00 in 0 W/m2
03:26 39.4 °F 35.8 °F 29.72 in West 4.0 mph 6.0 mph 87 % 0.00 in 0 W/m2
03:27 39.2 °F 35.7 °F 29.72 in West 3.0 mph 5.0 mph 87 % 0.00 in 0 W/m2
03:32 39.0 °F 35.5 °F 29.72 in West 3.0 mph 7.0 mph 87 % 0.00 in 0 W/m2
03:33 39.0 °F 35.5 °F 29.72 in West 3.0 mph 7.0 mph 87 % 0.00 in 0 W/m2
03:39 38.8 °F 35.6 °F 29.73 in West 3.0 mph 6.0 mph 88 % 0.00 in 0 W/m2
03:44 38.8 °F 35.6 °F 29.73 in West 3.0 mph 7.0 mph 88 % 0.00 in 0 W/m2
03:49 38.8 °F 35.9 °F 29.72 in West 3.0 mph 6.0 mph 89 % 0.00 in 0 W/m2
03:54 38.8 °F 35.9 °F 29.72 in West 3.0 mph 7.0 mph 89 % 0.00 in 0 W/m2
03:59 38.7 °F 35.7 °F 29.72 in West 3.0 mph 5.0 mph 89 % 0.00 in 0 W/m2
04:04 38.7 °F 35.7 °F 29.72 in WNW 5.0 mph 9.0 mph 89 % 0.00 in 0 W/m2
04:09 38.8 °F 36.2 °F 29.72 in WNW 4.0 mph 6.0 mph 90 % 0.00 in 0 W/m2
04:14 38.8 °F 36.2 °F 29.72 in West 3.0 mph 7.0 mph 90 % 0.00 in 0 W/m2
04:19 38.8 °F 36.2 °F 29.73 in West 2.0 mph 6.0 mph 90 % 0.00 in 0 W/m2
04:24 38.8 °F 36.2 °F 29.73 in West 2.0 mph 5.0 mph 90 % 0.00 in 0 W/m2
04:29 38.8 °F 36.2 °F 29.73 in West 5.0 mph 8.0 mph 90 % 0.00 in 0 W/m2
04:34 39.0 °F 36.3 °F 29.73 in West 3.0 mph 7.0 mph 90 % 0.00 in 0 W/m2
04:39 39.0 °F 36.3 °F 29.73 in West 3.0 mph 7.0 mph 90 % 0.00 in 0 W/m2
04:44 39.2 °F 36.5 °F 29.73 in West 5.0 mph 10.0 mph 90 % 0.00 in 0 W/m2
04:49 39.2 °F 36.5 °F 29.73 in West 5.0 mph 8.0 mph 90 % 0.00 in 0 W/m2
04:54 39.4 °F 36.7 °F 29.73 in West 5.0 mph 8.0 mph 90 % 0.00 in 0 W/m2
04:59 39.6 °F 36.9 °F 29.73 in West 6.0 mph 11.0 mph 90 % 0.00 in 0 W/m2
05:04 39.7 °F 37.0 °F 29.74 in West 6.0 mph 8.0 mph 90 % 0.00 in 0 W/m2
05:09 39.7 °F 37.0 °F 29.74 in West 5.0 mph 10.0 mph 90 % 0.00 in 0 W/m2
05:14 39.9 °F 37.2 °F 29.74 in West 6.0 mph 10.0 mph 90 % 0.00 in 0 W/m2
05:19 40.1 °F 37.4 °F 29.75 in West 6.0 mph 11.0 mph 90 % 0.00 in 0 W/m2
05:24 40.3 °F 37.6 °F 29.74 in West 8.0 mph 12.0 mph 90 % 0.00 in 0 W/m2
05:29 40.5 °F 38.0 °F 29.75 in WNW 8.0 mph 11.0 mph 91 % 0.00 in 0 W/m2
05:34 40.5 °F 38.0 °F 29.75 in WNW 8.0 mph 14.0 mph 91 % 0.00 in 0 W/m2
05:39 40.5 °F 38.0 °F 29.75 in West 8.0 mph 12.0 mph 91 % 0.00 in 0 W/m2
05:44 40.3 °F 37.9 °F 29.75 in WNW 7.0 mph 10.0 mph 91 % 0.00 in 0 W/m2
05:49 40.3 °F 37.9 °F 29.76 in West 9.0 mph 13.0 mph 91 % 0.00 in 0 W/m2
05:54 40.5 °F 38.0 °F 29.76 in West 8.0 mph 12.0 mph 91 % 0.00 in 0 W/m2
05:59 40.5 °F 38.0 °F 29.76 in West 11.0 mph 19.0 mph 91 % 0.00 in 0 W/m2
06:04 40.6 °F 38.2 °F 29.76 in West 8.0 mph 12.0 mph 91 % 0.00 in 0 W/m2
06:09 40.6 °F 38.2 °F 29.76 in West 7.0 mph 12.0 mph 91 % 0.00 in 0 W/m2
06:14 40.6 °F 38.2 °F 29.76 in West 5.0 mph 8.0 mph 91 % 0.00 in 0 W/m2
06:19 40.6 °F 38.2 °F 29.76 in WNW 5.0 mph 8.0 mph 91 % 0.00 in 0 W/m2
06:24 40.6 °F 38.2 °F 29.76 in WNW 5.0 mph 10.0 mph 91 % 0.00 in 0 W/m2
06:29 40.5 °F 38.0 °F 29.76 in West 6.0 mph 10.0 mph 91 % 0.00 in 0 W/m2
06:34 40.3 °F 37.6 °F 29.76 in West 6.0 mph 10.0 mph 90 % 0.00 in 0 W/m2
06:39 40.1 °F 37.4 °F 29.76 in WNW 8.0 mph 15.0 mph 90 % 0.00 in 0 W/m2
06:44 39.9 °F 37.2 °F 29.77 in WNW 6.0 mph 11.0 mph 90 % 0.00 in 0 W/m2
06:49 39.7 °F 37.0 °F 29.77 in WNW 7.0 mph 10.0 mph 90 % 0.00 in 0 W/m2
06:54 39.6 °F 36.6 °F 29.77 in WNW 6.0 mph 10.0 mph 89 % 0.00 in 0 W/m2
06:59 39.4 °F 36.4 °F 29.77 in WNW 7.0 mph 11.0 mph 89 % 0.00 in 0 W/m2
07:04 39.4 °F 36.4 °F 29.78 in WNW 7.0 mph 10.0 mph 89 % 0.00 in 0 W/m2
07:10 39.4 °F 36.4 °F 29.78 in WNW 5.0 mph 8.0 mph 89 % 0.00 in 5 W/m2
07:15 39.4 °F 36.4 °F 29.79 in WNW 3.0 mph 6.0 mph 89 % 0.00 in 7 W/m2
07:19 39.0 °F 36.1 °F 29.79 in WNW 4.0 mph 7.0 mph 89 % 0.00 in 9 W/m2
07:25 39.0 °F 36.3 °F 29.79 in WNW 6.0 mph 8.0 mph 90 % 0.00 in 11 W/m2
07:30 39.0 °F 36.3 °F 29.79 in WNW 6.0 mph 10.0 mph 90 % 0.00 in 14 W/m2
07:35 39.2 °F 36.5 °F 29.79 in WNW 7.0 mph 11.0 mph 90 % 0.00 in 16 W/m2
07:40 39.4 °F 36.7 °F 29.79 in WNW 5.0 mph 9.0 mph 90 % 0.00 in 18 W/m2
07:45 39.6 °F 36.9 °F 29.80 in WNW 6.0 mph 9.0 mph 90 % 0.00 in 23 W/m2
07:50 39.7 °F 37.0 °F 29.80 in WNW 5.0 mph 9.0 mph 90 % 0.00 in 28 W/m2
07:55 39.9 °F 37.2 °F 29.81 in NW 5.0 mph 7.0 mph 90 % 0.00 in 35 W/m2
08:00 39.9 °F 37.2 °F 29.81 in WNW 3.0 mph 8.0 mph 90 % 0.00 in 40 W/m2
08:05 40.3 °F 37.6 °F 29.81 in WNW 6.0 mph 10.0 mph 90 % 0.00 in 44 W/m2
08:10 40.6 °F 37.9 °F 29.82 in WNW 7.0 mph 10.0 mph 90 % 0.00 in 35 W/m2
08:15 40.8 °F 38.1 °F 29.82 in WNW 7.0 mph 11.0 mph 90 % 0.00 in 33 W/m2
08:20 41.2 °F 38.5 °F 29.82 in WNW 8.0 mph 13.0 mph 90 % 0.00 in 33 W/m2
08:25 41.4 °F 38.4 °F 29.82 in WNW 9.0 mph 13.0 mph 89 % 0.00 in 30 W/m2
08:30 41.4 °F 38.4 °F 29.83 in WNW 7.0 mph 11.0 mph 89 % 0.00 in 37 W/m2
08:35 41.4 °F 38.1 °F 29.83 in WNW 8.0 mph 12.0 mph 88 % 0.00 in 102 W/m2
08:40 41.5 °F 38.3 °F 29.83 in WNW 7.0 mph 10.0 mph 88 % 0.00 in 158 W/m2
08:45 41.7 °F 38.4 °F 29.83 in WNW 6.0 mph 8.0 mph 88 % 0.00 in 169 W/m2
08:50 41.9 °F 38.6 °F 29.83 in WNW 7.0 mph 10.0 mph 88 % 0.00 in 135 W/m2
08:55 42.3 °F 39.0 °F 29.84 in WNW 7.0 mph 11.0 mph 88 % 0.00 in 188 W/m2
09:00 42.6 °F 39.3 °F 29.84 in WNW 7.0 mph 12.0 mph 88 % 0.00 in 179 W/m2
09:05 43.0 °F 39.4 °F 29.84 in WNW 6.0 mph 10.0 mph 87 % 0.00 in 207 W/m2
09:10 43.5 °F 39.9 °F 29.84 in WNW 7.0 mph 9.0 mph 87 % 0.00 in 216 W/m2
09:15 44.1 °F 40.1 °F 29.85 in WNW 7.0 mph 12.0 mph 86 % 0.00 in 227 W/m2
09:20 44.6 °F 40.4 °F 29.85 in WNW 7.0 mph 11.0 mph 85 % 0.00 in 236 W/m2
09:25 45.1 °F 40.9 °F 29.85 in WNW 8.0 mph 14.0 mph 85 % 0.00 in 244 W/m2
09:30 45.3 °F 40.8 °F 29.85 in WNW 9.0 mph 16.0 mph 84 % 0.00 in 253 W/m2
09:35 45.7 °F 40.8 °F 29.85 in WNW 10.0 mph 14.0 mph 83 % 0.00 in 264 W/m2
09:40 45.9 °F 40.7 °F 29.86 in WNW 9.0 mph 13.0 mph 82 % 0.00 in 271 W/m2
09:45 46.0 °F 40.9 °F 29.86 in WNW 9.0 mph 14.0 mph 82 % 0.00 in 278 W/m2
09:50 46.4 °F 41.2 °F 29.86 in WNW 9.0 mph 13.0 mph 82 % 0.00 in 287 W/m2
09:55 46.6 °F 41.1 °F 29.86 in WNW 8.0 mph 13.0 mph 81 % 0.00 in 295 W/m2
10:00 46.8 °F 40.9 °F 29.86 in WNW 9.0 mph 12.0 mph 80 % 0.00 in 301 W/m2
10:05 47.1 °F 41.3 °F 29.87 in NW 10.0 mph 15.0 mph 80 % 0.00 in 308 W/m2
10:10 47.3 °F 41.1 °F 29.87 in WNW 10.0 mph 13.0 mph 79 % 0.00 in 315 W/m2
10:15 47.5 °F 41.3 °F 29.87 in WNW 8.0 mph 16.0 mph 79 % 0.00 in 322 W/m2
10:20 47.7 °F 41.1 °F 29.87 in WNW 10.0 mph 16.0 mph 78 % 0.00 in 329 W/m2
10:25 47.7 °F 40.8 °F 29.87 in WNW 12.0 mph 20.0 mph 77 % 0.00 in 332 W/m2
10:30 47.8 °F 40.6 °F 29.88 in NW 10.0 mph 21.0 mph 76 % 0.00 in 339 W/m2
10:35 48.0 °F 40.8 °F 29.88 in NW 9.0 mph 18.0 mph 76 % 0.00 in 343 W/m2
10:40 48.2 °F 40.6 °F 29.88 in NW 9.0 mph 15.0 mph 75 % 0.00 in 353 W/m2
10:45 48.4 °F 40.8 °F 29.89 in NW 9.0 mph 15.0 mph 75 % 0.00 in 388 W/m2
10:50 48.7 °F 41.2 °F 29.89 in NW 8.0 mph 15.0 mph 75 % 0.00 in 388 W/m2
10:55 48.9 °F 41.0 °F 29.90 in NW 10.0 mph 18.0 mph 74 % 0.00 in 459 W/m2
11:00 48.7 °F 40.8 °F 29.90 in NW 10.0 mph 15.0 mph 74 % 0.00 in 160 W/m2
11:06 48.4 °F 40.8 °F 29.90 in NW 7.0 mph 12.0 mph 75 % 0.00 in 127 W/m2
11:11 48.0 °F 39.8 °F 29.90 in NW 11.0 mph 21.0 mph 73 % 0.00 in 109 W/m2
11:16 47.7 °F 39.8 °F 29.90 in NW 8.0 mph 15.0 mph 74 % 0.00 in 95 W/m2
11:21 47.3 °F 39.4 °F 29.91 in NW 10.0 mph 15.0 mph 74 % 0.00 in 338 W/m2
11:26 47.5 °F 39.6 °F 29.91 in NW 9.0 mph 16.0 mph 74 % 0.00 in 394 W/m2
11:31 47.8 °F 39.6 °F 29.91 in NW 12.0 mph 21.0 mph 73 % 0.00 in 394 W/m2
11:36 48.2 °F 39.9 °F 29.91 in NW 9.0 mph 15.0 mph 73 % 0.00 in 385 W/m2
11:41 48.7 °F 40.8 °F 29.92 in NW 5.0 mph 9.0 mph 74 % 0.00 in 381 W/m2
11:46 48.9 °F 40.3 °F 29.92 in NW 9.0 mph 15.0 mph 72 % 0.00 in 383 W/m2
11:51 49.1 °F 40.1 °F 29.92 in NW 9.0 mph 15.0 mph 71 % 0.00 in 383 W/m2
11:56 49.3 °F 40.3 °F 29.92 in NW 8.0 mph 15.0 mph 71 % 0.00 in 380 W/m2
12:01 49.5 °F 40.4 °F 29.92 in NW 10.0 mph 15.0 mph 71 % 0.00 in 381 W/m2
12:06 49.3 °F 39.9 °F 29.92 in NW 12.0 mph 21.0 mph 70 % 0.00 in 397 W/m2
12:11 48.9 °F 39.6 °F 29.93 in NW 13.0 mph 20.0 mph 70 % 0.00 in 381 W/m2
12:16 48.9 °F 39.6 °F 29.92 in NW 7.0 mph 12.0 mph 70 % 0.00 in 378 W/m2
12:21 49.3 °F 39.9 °F 29.92 in NW 9.0 mph 13.0 mph 70 % 0.00 in 374 W/m2
12:26 49.5 °F 39.7 °F 29.93 in NW 9.0 mph 16.0 mph 69 % 0.00 in 371 W/m2
12:31 49.6 °F 39.9 °F 29.93 in NW 8.0 mph 12.0 mph 69 % 0.00 in 371 W/m2
12:36 50.0 °F 40.2 °F 29.93 in NW 8.0 mph 15.0 mph 69 % 0.00 in 373 W/m2
12:41 50.2 °F 40.0 °F 29.94 in NW 7.0 mph 11.0 mph 68 % 0.00 in 364 W/m2
12:46 50.2 °F 39.6 °F 29.94 in NNW 10.0 mph 18.0 mph 67 % 0.00 in 359 W/m2
12:51 49.8 °F 39.3 °F 29.94 in NW 11.0 mph 19.0 mph 67 % 0.00 in 357 W/m2
12:56 49.8 °F 39.3 °F 29.94 in NW 8.0 mph 14.0 mph 67 % 0.00 in 353 W/m2
13:01 49.8 °F 39.3 °F 29.95 in NW 11.0 mph 16.0 mph 67 % 0.00 in 352 W/m2
13:06 49.6 °F 39.1 °F 29.95 in NW 13.0 mph 19.0 mph 67 % 0.00 in 381 W/m2
13:11 49.5 °F 39.0 °F 29.95 in NW 11.0 mph 20.0 mph 67 % 0.00 in 374 W/m2
13:16 49.5 °F 39.3 °F 29.95 in NW 9.0 mph 19.0 mph 68 % 0.00 in 343 W/m2
13:21 49.6 °F 39.5 °F 29.95 in NW 9.0 mph 15.0 mph 68 % 0.00 in 341 W/m2
13:26 49.8 °F 39.7 °F 29.96 in NW 8.0 mph 14.0 mph 68 % 0.00 in 336 W/m2
13:31 50.2 °F 40.0 °F 29.96 in NW 9.0 mph 13.0 mph 68 % 0.00 in 355 W/m2
13:36 50.2 °F 40.0 °F 29.97 in NW 9.0 mph 14.0 mph 68 % 0.00 in 188 W/m2
13:41 50.2 °F 40.0 °F 29.97 in NW 10.0 mph 13.0 mph 68 % 0.00 in 179 W/m2
13:46 50.2 °F 40.0 °F 29.97 in NW 10.0 mph 13.0 mph 68 % 0.00 in 149 W/m2
13:51 49.8 °F 39.7 °F 29.98 in NW 7.0 mph 13.0 mph 68 % 0.00 in 116 W/m2
13:56 49.6 °F 39.5 °F 29.98 in NW 9.0 mph 13.0 mph 68 % 0.00 in 127 W/m2
14:01 49.5 °F 39.7 °F 29.98 in NW 7.0 mph 11.0 mph 69 % 0.00 in 104 W/m2
14:06 49.3 °F 39.9 °F 29.98 in NW 7.0 mph 12.0 mph 70 % 0.00 in 327 W/m2
14:07 49.5 °F 40.1 °F 29.98 in WNW 7.0 mph 12.0 mph 70 % 0.00 in 95 W/m2
14:22 49.1 °F 38.6 °F 29.98 in NW 8.0 mph 13.0 mph 67 % 0.00 in 47 W/m2
14:32 49.3 °F 39.2 °F 29.99 in NW 7.0 mph 10.0 mph 68 % 0.00 in 211 W/m2
14:37 49.5 °F 39.0 °F 29.99 in NNW 7.0 mph 13.0 mph 67 % 0.00 in 200 W/m2
14:42 49.5 °F 39.0 °F 29.99 in NW 6.0 mph 10.0 mph 67 % 0.00 in 186 W/m2
14:47 49.6 °F 39.1 °F 30.00 in NW 9.0 mph 15.0 mph 67 % 0.00 in 179 W/m2
14:52 49.5 °F 39.0 °F 30.00 in NW 6.0 mph 11.0 mph 67 % 0.00 in 167 W/m2
14:57 49.3 °F 38.8 °F 30.00 in NW 7.0 mph 11.0 mph 67 % 0.00 in 158 W/m2
15:02 48.9 °F 38.4 °F 30.01 in NW 9.0 mph 14.0 mph 67 % 0.00 in 149 W/m2
15:03 48.9 °F 38.4 °F 30.01 in NW 9.0 mph 14.0 mph 67 % 0.00 in 149 W/m2
15:08 48.7 °F 38.6 °F 30.01 in NW 8.0 mph 13.0 mph 68 % 0.00 in 109 W/m2
15:13 48.6 °F 38.8 °F 30.01 in NW 7.0 mph 11.0 mph 69 % 0.00 in 39 W/m2
15:18 48.4 °F 38.7 °F 30.02 in NW 7.0 mph 14.0 mph 69 % 0.00 in 42 W/m2
15:23 48.2 °F 38.5 °F 30.02 in NW 6.0 mph 10.0 mph 69 % 0.00 in 37 W/m2
15:28 48.2 °F 38.5 °F 30.02 in WNW 8.0 mph 12.0 mph 69 % 0.00 in 47 W/m2
15:33 48.2 °F 38.9 °F 30.02 in WNW 5.0 mph 9.0 mph 70 % 0.00 in 39 W/m2
15:38 48.0 °F 38.7 °F 30.03 in NW 7.0 mph 11.0 mph 70 % 0.00 in 63 W/m2
15:43 48.0 °F 38.7 °F 30.03 in NW 4.0 mph 9.0 mph 70 % 0.00 in 65 W/m2
15:48 48.0 °F 39.1 °F 30.04 in NW 6.0 mph 10.0 mph 71 % 0.00 in 54 W/m2
15:53 48.0 °F 39.1 °F 30.04 in NW 5.0 mph 8.0 mph 71 % 0.00 in 40 W/m2
15:58 47.8 °F 38.5 °F 30.04 in NW 8.0 mph 12.0 mph 70 % 0.00 in 40 W/m2
16:03 47.8 °F 38.9 °F 30.05 in NW 6.0 mph 10.0 mph 71 % 0.00 in 21 W/m2
16:08 47.7 °F 38.7 °F 30.05 in NNW 6.0 mph 9.0 mph 71 % 0.00 in 16 W/m2
16:13 47.5 °F 38.5 °F 30.06 in NW 4.0 mph 9.0 mph 71 % 0.00 in 11 W/m2
16:18 47.5 °F 38.5 °F 30.06 in NW 6.0 mph 9.0 mph 71 % 0.00 in 7 W/m2
16:23 47.1 °F 38.6 °F 30.06 in NW 4.0 mph 7.0 mph 72 % 0.00 in 5 W/m2
16:28 46.9 °F 38.4 °F 30.06 in NW 5.0 mph 9.0 mph 72 % 0.00 in 0 W/m2
16:33 46.9 °F 38.7 °F 30.06 in NW 3.0 mph 7.0 mph 73 % 0.00 in 0 W/m2
16:38 46.8 °F 38.6 °F 30.07 in NW 4.0 mph 6.0 mph 73 % 0.00 in 0 W/m2
16:43 46.6 °F 38.7 °F 30.07 in NW 3.0 mph 5.0 mph 74 % 0.00 in 0 W/m2
16:48 46.6 °F 38.7 °F 30.07 in NW 5.0 mph 8.0 mph 74 % 0.00 in 0 W/m2
16:53 46.4 °F 38.6 °F 30.08 in NW 2.0 mph 5.0 mph 74 % 0.00 in 0 W/m2
16:58 46.2 °F 38.4 °F 30.08 in NW 4.0 mph 7.0 mph 74 % 0.00 in 0 W/m2
17:03 46.2 °F 38.4 °F 30.08 in NW 6.0 mph 8.0 mph 74 % 0.00 in 0 W/m2
17:08 46.0 °F 38.2 °F 30.08 in NW 4.0 mph 6.0 mph 74 % 0.00 in 0 W/m2
17:09 45.9 °F 38.0 °F 30.08 in NW 3.0 mph 6.0 mph 74 % 0.00 in 0 W/m2
17:14 45.7 °F 37.9 °F 30.09 in NW 4.0 mph 9.0 mph 74 % 0.00 in 0 W/m2
17:19 45.3 °F 37.9 °F 30.09 in NW 6.0 mph 8.0 mph 75 % 0.00 in 0 W/m2
17:24 45.0 °F 37.5 °F 30.09 in NW 5.0 mph 7.0 mph 75 % 0.00 in 0 W/m2
17:29 44.8 °F 37.7 °F 30.10 in NW 5.0 mph 8.0 mph 76 % 0.00 in 0 W/m2
17:34 44.6 °F 37.5 °F 30.10 in WNW 5.0 mph 7.0 mph 76 % 0.00 in 0 W/m2
17:39 44.2 °F 37.5 °F 30.10 in NW 5.0 mph 9.0 mph 77 % 0.00 in 0 W/m2
17:44 44.1 °F 37.3 °F 30.10 in NW 6.0 mph 10.0 mph 77 % 0.00 in 0 W/m2
17:48 43.9 °F 37.5 °F 30.11 in NW 7.0 mph 11.0 mph 78 % 0.00 in 0 W/m2
17:53 43.9 °F 37.5 °F 30.11 in NW 7.0 mph 10.0 mph 78 % 0.00 in 0 W/m2
17:58 43.7 °F 37.3 °F 30.11 in NW 5.0 mph 9.0 mph 78 % 0.00 in 0 W/m2
18:03 43.5 °F 37.1 °F 30.11 in NW 4.0 mph 7.0 mph 78 % 0.00 in 0 W/m2
18:08 43.3 °F 36.9 °F 30.11 in NW 5.0 mph 8.0 mph 78 % 0.00 in 0 W/m2
18:13 43.3 °F 36.9 °F 30.11 in WNW 4.0 mph 7.0 mph 78 % 0.00 in 0 W/m2
18:18 43.2 °F 36.8 °F 30.12 in WNW 5.0 mph 8.0 mph 78 % 0.00 in 0 W/m2
18:23 43.2 °F 36.8 °F 30.12 in WNW 3.0 mph 6.0 mph 78 % 0.00 in 0 W/m2
18:28 43.0 °F 36.6 °F 30.12 in WNW 4.0 mph 6.0 mph 78 % 0.00 in 0 W/m2
18:33 42.8 °F 36.7 °F 30.12 in WNW 2.0 mph 4.0 mph 79 % 0.00 in 0 W/m2
18:38 42.4 °F 36.4 °F 30.12 in Calm   1.0 mph 79 % 0.00 in 0 W/m2
18:43 42.3 °F 36.2 °F 30.13 in Calm     79 % 0.00 in 0 W/m2
18:48 41.7 °F 35.7 °F 30.13 in WNW 2.0 mph 4.0 mph 79 % 0.00 in 0 W/m2
18:53 41.4 °F 35.7 °F 30.13 in Calm   2.0 mph 80 % 0.00 in 0 W/m2
18:58 41.0 °F 35.3 °F 30.13 in WNW 2.0 mph 4.0 mph 80 % 0.00 in 0 W/m2
19:03 40.6 °F 35.3 °F 30.13 in WNW 3.0 mph 5.0 mph 81 % 0.00 in 0 W/m2
19:08 40.3 °F 35.2 °F 30.13 in WNW 2.0 mph 4.0 mph 82 % 0.00 in 0 W/m2
19:13 40.1 °F 35.4 °F 30.13 in WNW 2.0 mph 5.0 mph 83 % 0.00 in 0 W/m2
19:18 39.9 °F 35.2 °F 30.13 in WNW 2.0 mph 5.0 mph 83 % 0.00 in 0 W/m2
19:23 39.7 °F 35.0 °F 30.14 in WNW 2.0 mph 4.0 mph 83 % 0.00 in 0 W/m2
19:28 39.6 °F 35.1 °F 30.14 in WNW 2.0 mph 4.0 mph 84 % 0.00 in 0 W/m2
19:33 39.4 °F 34.9 °F 30.14 in WNW 3.0 mph 6.0 mph 84 % 0.00 in 0 W/m2
19:34 39.4 °F 34.9 °F 30.14 in WNW 3.0 mph 5.0 mph 84 % 0.00 in 0 W/m2
19:39 39.4 °F 34.9 °F 30.14 in WNW 4.0 mph 7.0 mph 84 % 0.00 in 0 W/m2
19:44 39.4 °F 34.9 °F 30.14 in NW 5.0 mph 8.0 mph 84 % 0.00 in 0 W/m2
19:49 39.4 °F 34.9 °F 30.14 in NW 5.0 mph 8.0 mph 84 % 0.00 in 0 W/m2
19:54 39.6 °F 35.1 °F 30.14 in WNW 5.0 mph 8.0 mph 84 % 0.00 in 0 W/m2
19:59 39.7 °F 35.0 °F 30.15 in WNW 4.0 mph 7.0 mph 83 % 0.00 in 0 W/m2
20:04 39.7 °F 35.0 °F 30.15 in NW 4.0 mph 6.0 mph 83 % 0.00 in 0 W/m2
20:09 39.7 °F 35.0 °F 30.15 in NW 4.0 mph 6.0 mph 83 % 0.00 in 0 W/m2
20:14 39.6 °F 34.8 °F 30.15 in WNW 4.0 mph 7.0 mph 83 % 0.00 in 0 W/m2
20:19 39.6 °F 34.8 °F 30.15 in WNW 4.0 mph 6.0 mph 83 % 0.00 in 0 W/m2
20:24 39.6 °F 34.5 °F 30.15 in NW 3.0 mph 7.0 mph 82 % 0.00 in 0 W/m2
20:29 39.4 °F 34.3 °F 30.15 in NW 3.0 mph 6.0 mph 82 % 0.00 in 0 W/m2
20:34 39.4 °F 34.3 °F 30.15 in NW 3.0 mph 6.0 mph 82 % 0.00 in 0 W/m2
20:39 39.4 °F 34.3 °F 30.15 in NNW 3.0 mph 6.0 mph 82 % 0.00 in 0 W/m2
20:44 39.4 °F 34.3 °F 30.15 in NW 4.0 mph 6.0 mph 82 % 0.00 in 0 W/m2
20:49 39.4 °F 34.3 °F 30.16 in WNW 2.0 mph 4.0 mph 82 % 0.00 in 0 W/m2
20:54 39.0 °F 34.0 °F 30.16 in NW 2.0 mph 5.0 mph 82 % 0.00 in 0 W/m2
20:59 39.0 °F 34.0 °F 30.16 in NW 2.0 mph 6.0 mph 82 % 0.00 in 0 W/m2
21:04 38.8 °F 33.8 °F 30.17 in NW 3.0 mph 6.0 mph 82 % 0.00 in 0 W/m2
21:09 38.7 °F 33.6 °F 30.17 in Calm   2.0 mph 82 % 0.00 in 0 W/m2
21:14 38.3 °F 33.3 °F 30.17 in NW 1.0 mph 2.0 mph 82 % 0.00 in 0 W/m2
21:19 37.9 °F 33.2 °F 30.17 in NW 1.0 mph 2.0 mph 83 % 0.00 in 0 W/m2
21:24 37.6 °F 32.9 °F 30.17 in Calm   2.0 mph 83 % 0.00 in 0 W/m2
21:29 37.0 °F 32.4 °F 30.17 in Calm     83 % 0.00 in 0 W/m2
21:34 36.9 °F 32.2 °F 30.17 in NW 2.0 mph 4.0 mph 83 % 0.00 in 0 W/m2
21:39 36.5 °F 32.1 °F 30.17 in WNW 3.0 mph 4.0 mph 84 % 0.00 in 0 W/m2
21:44 36.1 °F 32.1 °F 30.17 in WNW 2.0 mph 3.0 mph 85 % 0.00 in 0 W/m2
21:49 36.1 °F 32.4 °F 30.17 in WNW 1.0 mph 2.0 mph 86 % 0.00 in 0 W/m2
21:54 36.0 °F 32.2 °F 30.17 in Calm     86 % 0.00 in 0 W/m2
21:59 35.8 °F 32.0 °F 30.17 in WNW 1.0 mph 4.0 mph 86 % 0.00 in 0 W/m2
22:04 35.4 °F 31.6 °F 30.18 in WNW 1.0 mph 4.0 mph 86 % 0.00 in 0 W/m2
22:09 35.1 °F 31.6 °F 30.18 in Calm     87 % 0.00 in 0 W/m2
22:14 34.9 °F 31.4 °F 30.18 in Calm     87 % 0.00 in 0 W/m2
22:19 34.5 °F 31.0 °F 30.18 in Calm     87 % 0.00 in 0 W/m2
22:24 34.2 °F 30.7 °F 30.18 in WNW 1.0 mph 2.0 mph 87 % 0.00 in 0 W/m2
22:29 34.0 °F 30.5 °F 30.18 in WNW 1.0 mph 2.0 mph 87 % 0.00 in 0 W/m2
22:34 33.8 °F 30.6 °F 30.18 in Calm     88 % 0.00 in 0 W/m2
22:39 33.6 °F 30.7 °F 30.18 in Calm     89 % 0.00 in 0 W/m2
22:44 33.6 °F 30.7 °F 30.19 in Calm   2.0 mph 89 % 0.00 in 0 W/m2
22:49 33.4 °F 30.5 °F 30.19 in WNW 2.0 mph 4.0 mph 89 % 0.00 in 0 W/m2
22:54 33.4 °F 30.8 °F 30.19 in WNW 2.0 mph 4.0 mph 90 % 0.00 in 0 W/m2
22:59 33.6 °F 31.0 °F 30.19 in WNW 2.0 mph 4.0 mph 90 % 0.00 in 0 W/m2
23:04 34.0 °F 31.6 °F 30.19 in WNW 1.0 mph 3.0 mph 91 % 0.00 in 0 W/m2
23:09 34.0 °F 31.6 °F 30.19 in Calm     91 % 0.00 in 0 W/m2
23:14 34.0 °F 31.6 °F 30.19 in Calm   2.0 mph 91 % 0.00 in 0 W/m2
23:20 34.0 °F 31.6 °F 30.19 in Calm   1.0 mph 91 % 0.00 in 0 W/m2
23:25 34.0 °F 31.6 °F 30.20 in WNW 1.0 mph 3.0 mph 91 % 0.00 in 0 W/m2
23:30 33.6 °F 31.3 °F 30.20 in Calm     91 % 0.00 in 0 W/m2
23:35 33.4 °F 30.8 °F 30.20 in Calm     90 % 0.00 in 0 W/m2
23:40 33.3 °F 30.6 °F 30.20 in WNW 1.0 mph 2.0 mph 90 % 0.00 in 0 W/m2
23:45 33.1 °F 30.5 °F 30.20 in WNW 1.0 mph 2.0 mph 90 % 0.00 in 0 W/m2
23:50 33.1 °F 30.7 °F 30.20 in Calm   2.0 mph 91 % 0.00 in 0 W/m2
23:55 32.7 °F 30.4 °F 30.21 in WNW 1.0 mph 2.0 mph 91 % 0.00 in 0 W/m2
Delerius-Weather
Compliments of Weather Underground - 2.25 mb

Data updates at regular intervals.